Time;durP1;ratioP1;P1;durP2;ratioP2;P2;SDS_P1;SDS_P2;PMS_P1;PMS_P2;Temp;Humidity;BMP_temperature;BMP_pressure;BME280_temperature;BME280_humidity;BME280_pressure;Samples;Min_cycle;Max_cycle;Signal;HPM_P1;HPM_P2
2023/05/25 00:00:32;;;;;;;29.75;18.10;;;16.70;99.90;;;;;;4998179;28;20443;-83
2023/05/25 00:02:59;;;;;;;40.45;19.60;;;16.70;99.90;;;;;;5015329;28;20026;-82
2023/05/25 00:05:26;;;;;;;26.80;17.15;;;16.70;99.90;;;;;;5019005;28;20045;-82
2023/05/25 00:07:54;;;;;;;27.73;18.48;;;16.70;99.90;;;;;;5025201;28;20030;-82
2023/05/25 00:10:20;;;;;;;25.17;17.77;;;16.70;99.90;;;;;;5015400;28;20026;-83
2023/05/25 00:12:46;;;;;;;26.00;18.70;;;16.70;99.90;;;;;;5015810;28;20018;-85
2023/05/25 00:15:12;;;;;;;35.15;17.85;;;16.60;99.90;;;;;;5001695;28;20124;-82
2023/05/25 00:17:39;;;;;;;32.10;18.05;;;16.60;99.90;;;;;;5029406;28;20025;-81
2023/05/25 00:20:06;;;;;;;33.05;18.95;;;16.70;99.90;;;;;;5009817;28;20022;-81
2023/05/25 00:22:37;;;;;;;30.60;18.40;;;16.70;99.90;;;;;;5027337;28;20156;-83
2023/05/25 00:25:05;;;;;;;27.85;18.92;;;16.70;99.90;;;;;;5016239;28;20105;-82
2023/05/25 00:27:31;;;;;;;31.08;18.60;;;16.70;99.90;;;;;;5015504;28;20100;-83
2023/05/25 00:29:57;;;;;;;28.30;18.25;;;16.70;99.90;;;;;;4997483;28;20102;-83
2023/05/25 00:32:23;;;;;;;32.95;18.58;;;16.80;99.90;;;;;;5014686;28;20028;-82
2023/05/25 00:34:50;;;;;;;26.75;18.25;;;16.70;99.90;;;;;;4996752;28;20026;-82
2023/05/25 00:37:16;;;;;;;31.50;18.77;;;16.70;99.90;;;;;;5024230;28;20022;-82
2023/05/25 00:39:42;;;;;;;28.83;19.80;;;16.70;99.90;;;;;;5018920;28;20049;-82
2023/05/25 00:42:07;;;;;;;25.20;18.67;;;16.60;99.90;;;;;;4997348;28;20474;-82
2023/05/25 00:44:33;;;;;;;32.20;19.52;;;16.70;99.90;;;;;;5014906;28;20026;-83
2023/05/25 00:47:03;;;;;;;32.35;21.00;;;16.60;99.90;;;;;;5013904;28;20026;-81
2023/05/25 00:49:33;;;;;;;28.17;19.05;;;16.70;99.90;;;;;;5013311;28;20486;-83
2023/05/25 00:51:59;;;;;;;29.83;19.92;;;16.70;99.90;;;;;;5012783;28;20044;-82
2023/05/25 00:54:27;;;;;;;30.25;20.90;;;16.80;99.90;;;;;;4997279;28;20033;-82
2023/05/25 00:57:03;;;;;;;29.40;19.80;;;16.80;99.90;;;;;;5014676;28;20037;-84
2023/05/25 00:59:35;;;;;;;28.15;19.80;;;16.80;99.90;;;;;;4996433;28;20033;-83
2023/05/25 01:02:08;;;;;;;33.78;20.27;;;16.80;99.90;;;;;;5015313;28;20030;-83
2023/05/25 01:04:41;;;;;;;30.02;19.75;;;16.80;99.90;;;;;;5021324;28;20074;-82
2023/05/25 01:07:09;;;;;;;39.28;20.30;;;16.80;99.90;;;;;;5005649;28;20076;-81
2023/05/25 01:09:39;;;;;;;31.55;20.52;;;16.80;99.90;;;;;;5019004;28;20014;-83
2023/05/25 01:12:07;;;;;;;33.65;19.95;;;16.80;99.90;;;;;;5019955;28;20452;-83
2023/05/25 01:14:34;;;;;;;33.38;21.75;;;16.90;99.90;;;;;;5014423;28;20030;-83
2023/05/25 01:17:02;;;;;;;39.10;21.92;;;16.90;99.90;;;;;;5014380;28;20024;-82
2023/05/25 01:19:27;;;;;;;28.00;19.90;;;16.80;99.90;;;;;;5017820;28;20025;-82
2023/05/25 01:22:11;;;;;;;34.20;20.35;;;16.80;99.90;;;;;;5052218;28;20081;-82
2023/05/25 01:24:43;;;;;;;31.20;21.88;;;16.80;99.90;;;;;;5022529;28;20022;-83
2023/05/25 01:27:21;;;;;;;28.60;19.50;;;16.80;99.90;;;;;;5015819;28;20317;-82
2023/05/25 01:29:48;;;;;;;27.23;19.95;;;16.70;99.90;;;;;;5029132;28;20084;-81
2023/05/25 01:32:18;;;;;;;36.33;21.30;;;16.70;99.90;;;;;;5014594;28;20209;-82
2023/05/25 01:34:45;;;;;;;34.55;21.17;;;16.70;99.90;;;;;;5013729;28;20275;-82
2023/05/25 01:37:12;;;;;;;30.02;19.33;;;16.70;99.90;;;;;;5015421;28;20025;-82
2023/05/25 01:39:39;;;;;;;41.90;21.83;;;16.70;99.90;;;;;;5016689;28;20030;-82
2023/05/25 01:42:05;;;;;;;30.30;21.60;;;16.80;99.90;;;;;;5033921;28;20030;-83
2023/05/25 01:44:31;;;;;;;32.22;20.88;;;16.80;99.90;;;;;;5037455;28;20045;-82
2023/05/25 01:47:15;;;;;;;35.85;21.77;;;16.80;99.90;;;;;;5017786;28;20411;-81
2023/05/25 01:50:06;;;;;;;29.30;19.30;;;16.90;99.90;;;;;;5013137;28;20025;-83
2023/05/25 01:52:37;;;;;;;36.70;22.40;;;16.80;99.90;;;;;;5006800;28;20050;-83
2023/05/25 01:55:11;;;;;;;35.22;20.55;;;16.80;99.90;;;;;;5012927;28;20435;-83
2023/05/25 01:57:41;;;;;;;30.08;20.85;;;16.80;99.90;;;;;;5013268;28;20510;-83
2023/05/25 02:00:11;;;;;;;31.92;20.00;;;16.80;99.90;;;;;;4996287;28;20033;-83
2023/05/25 02:02:39;;;;;;;25.73;20.85;;;16.90;99.90;;;;;;5012360;28;20045;-83
2023/05/25 02:05:06;;;;;;;35.10;21.17;;;16.90;99.90;;;;;;5023780;28;20018;-83
2023/05/25 02:07:35;;;;;;;27.03;20.13;;;16.90;99.90;;;;;;5016081;28;20200;-84
2023/05/25 02:10:01;;;;;;;26.25;20.10;;;17.00;99.90;;;;;;4995905;28;20030;-84
2023/05/25 02:12:26;;;;;;;27.88;18.92;;;17.00;99.90;;;;;;5013121;28;20022;-84
2023/05/25 02:14:52;;;;;;;27.17;19.35;;;17.10;99.90;;;;;;5012628;28;20030;-83
2023/05/25 02:17:18;;;;;;;31.17;20.73;;;17.20;99.90;;;;;;5017369;28;20030;-82
2023/05/25 02:19:46;;;;;;;28.30;18.40;;;17.20;99.90;;;;;;5013677;28;20550;-84
2023/05/25 02:22:12;;;;;;;28.88;19.73;;;17.30;99.90;;;;;;5012745;28;20029;-83
2023/05/25 02:24:38;;;;;;;27.95;19.30;;;17.40;99.90;;;;;;5012274;28;20022;-82
2023/05/25 02:27:05;;;;;;;32.55;19.83;;;17.50;99.90;;;;;;5012394;28;20045;-83
2023/05/25 02:29:31;;;;;;;31.05;18.88;;;17.50;99.90;;;;;;5012783;28;20022;-82
2023/05/25 02:31:58;;;;;;;24.83;19.38;;;17.60;99.90;;;;;;5011136;28;20040;-83
2023/05/25 02:34:23;;;;;;;37.97;21.07;;;17.70;99.90;;;;;;5013154;28;20088;-83
2023/05/25 02:36:50;;;;;;;32.95;21.85;;;17.80;99.90;;;;;;5013034;28;20057;-83
2023/05/25 02:39:15;;;;;;;26.67;19.70;;;17.90;99.90;;;;;;5012156;28;20090;-83
2023/05/25 02:41:41;;;;;;;30.35;21.55;;;17.90;99.90;;;;;;5015114;28;20041;-82
2023/05/25 02:44:07;;;;;;;30.27;20.08;;;18.10;99.90;;;;;;5019428;28;20053;-82
2023/05/25 02:46:33;;;;;;;27.70;21.50;;;18.30;99.90;;;;;;5018468;28;20438;-83
2023/05/25 02:48:59;;;;;;;38.17;24.15;;;18.40;99.90;;;;;;5014733;28;20344;-83
2023/05/25 02:51:26;;;;;;;28.73;22.73;;;18.40;99.70;;;;;;5013016;28;20060;-83
2023/05/25 02:53:52;;;;;;;33.92;23.92;;;18.50;99.30;;;;;;5012690;28;20049;-83
2023/05/25 02:56:18;;;;;;;33.85;23.38;;;18.60;99.10;;;;;;5018509;28;20033;-83
2023/05/25 02:58:44;;;;;;;37.85;24.45;;;18.60;99.10;;;;;;5015396;28;20065;-82
2023/05/25 03:01:17;;;;;;;34.92;24.70;;;18.70;99.00;;;;;;5013245;28;20467;-82
2023/05/25 03:03:44;;;;;;;33.63;23.25;;;18.70;98.70;;;;;;5015069;28;20705;-84
2023/05/25 03:06:11;;;;;;;31.35;24.38;;;18.80;98.40;;;;;;5013650;28;20050;-83
2023/05/25 03:08:38;;;;;;;29.35;24.08;;;18.90;98.20;;;;;;5026286;28;20084;-82
2023/05/25 03:11:04;;;;;;;34.05;23.67;;;19.00;98.00;;;;;;5019642;28;20026;-82
2023/05/25 03:13:30;;;;;;;31.58;25.00;;;19.10;97.90;;;;;;5000019;28;20021;-82
2023/05/25 03:15:56;;;;;;;34.30;25.30;;;19.10;97.70;;;;;;5028339;28;20029;-83
2023/05/25 03:18:21;;;;;;;35.78;25.48;;;19.20;97.50;;;;;;5017426;28;20029;-82
2023/05/25 03:20:49;;;;;;;33.58;23.55;;;19.20;97.30;;;;;;5013024;28;20037;-82
2023/05/25 03:23:15;;;;;;;30.52;23.40;;;19.30;97.20;;;;;;5013332;28;20022;-83
2023/05/25 03:25:41;;;;;;;29.85;24.67;;;19.40;97.10;;;;;;5013997;28;20072;-82
2023/05/25 03:28:06;;;;;;;30.50;25.63;;;19.50;96.90;;;;;;5014995;28;20018;-83
2023/05/25 03:30:32;;;;;;;35.53;24.50;;;19.60;96.70;;;;;;5016584;28;20044;-84
2023/05/25 03:32:58;;;;;;;39.13;27.00;;;19.70;96.30;;;;;;5017709;28;20022;-81
2023/05/25 03:35:24;;;;;;;35.22;25.75;;;19.80;96.00;;;;;;5018474;28;20046;-83
2023/05/25 03:37:51;;;;;;;38.25;25.23;;;19.80;95.90;;;;;;5016540;28;20032;-83
2023/05/25 03:40:17;;;;;;;35.00;25.85;;;19.80;95.80;;;;;;5015981;28;20041;-83
2023/05/25 03:42:43;;;;;;;31.83;26.45;;;19.90;95.60;;;;;;5016249;28;20026;-83
2023/05/25 03:45:09;;;;;;;42.25;25.75;;;19.90;95.50;;;;;;5015508;28;20100;-83
2023/05/25 03:47:36;;;;;;;34.97;25.40;;;20.00;95.40;;;;;;5015560;28;20022;-83
2023/05/25 03:50:03;;;;;;;32.25;27.30;;;20.10;95.00;;;;;;5016206;28;20018;-82
2023/05/25 03:52:29;;;;;;;;;;;20.30;94.70;;;;;;5019978;28;20113;-82
2023/05/25 03:54:55;;;;;;;30.83;24.80;;;20.30;94.80;;;;;;5019030;28;19963;-83
2023/05/25 03:57:21;;;;;;;33.85;23.58;;;20.40;94.40;;;;;;5016495;28;20097;-83
2023/05/25 03:59:47;;;;;;;31.27;24.70;;;20.50;94.00;;;;;;5015545;28;20132;-83
2023/05/25 04:02:12;;;;;;;31.52;24.52;;;20.60;93.60;;;;;;5014968;28;20044;-82
2023/05/25 04:04:40;;;;;;;29.35;23.20;;;20.70;93.30;;;;;;5015198;28;20022;-83
2023/05/25 04:07:06;;;;;;;25.52;22.80;;;20.70;93.10;;;;;;5018139;28;20053;-84
2023/05/25 04:09:32;;;;;;;27.20;21.85;;;20.70;92.80;;;;;;5015310;28;20072;-83
2023/05/25 04:11:58;;;;;;;29.95;21.15;;;20.70;92.60;;;;;;4999453;28;20030;-83
2023/05/25 04:14:24;;;;;;;28.92;20.05;;;20.60;92.80;;;;;;5000633;28;20075;-85
2023/05/25 04:16:50;;;;;;;22.48;19.88;;;20.60;92.50;;;;;;5035203;28;20034;-84
2023/05/25 04:19:16;;;;;;;32.38;20.73;;;20.70;92.30;;;;;;5018883;28;20030;-84
2023/05/25 04:21:42;;;;;;;22.17;18.88;;;20.70;92.30;;;;;;5022970;28;20144;-83
2023/05/25 04:24:08;;;;;;;25.25;19.00;;;20.80;92.10;;;;;;5019808;28;20112;-82
2023/05/25 04:26:34;;;;;;;17.73;15.85;;;20.90;92.00;;;;;;5002055;28;20022;-83
2023/05/25 04:29:01;;;;;;;28.75;16.27;;;21.00;91.50;;;;;;5026903;28;20013;-83
2023/05/25 04:31:27;;;;;;;18.52;15.15;;;21.00;91.20;;;;;;5023378;28;20029;-86
2023/05/25 04:33:54;;;;;;;19.35;16.00;;;21.10;91.10;;;;;;5016519;28;20025;-84
2023/05/25 04:36:21;;;;;;;21.90;15.95;;;21.10;91.00;;;;;;5015880;28;20034;-84
2023/05/25 04:38:50;;;;;;;20.08;16.05;;;21.20;91.00;;;;;;5016235;28;20060;-86
2023/05/25 04:41:17;;;;;;;24.40;17.05;;;21.30;90.70;;;;;;5015509;28;20127;-85
2023/05/25 04:43:46;;;;;;;20.42;15.63;;;21.30;90.80;;;;;;5024973;28;20022;-84
2023/05/25 04:46:12;;;;;;;17.85;15.00;;;21.40;90.50;;;;;;5018372;28;20026;-84
2023/05/25 04:48:39;;;;;;;24.27;16.33;;;21.60;90.30;;;;;;5013778;28;20087;-85
2023/05/25 04:51:06;;;;;;;26.38;16.30;;;21.80;90.30;;;;;;5027774;28;20026;-85
2023/05/25 04:53:38;;;;;;;22.25;16.27;;;22.00;89.80;;;;;;5029930;28;20167;-84
2023/05/25 04:56:04;;;;;;;18.00;14.73;;;22.20;89.50;;;;;;5039333;28;20041;-86
2023/05/25 04:58:31;;;;;;;23.50;17.73;;;22.30;88.30;;;;;;5043013;28;20039;-86
2023/05/25 05:00:57;;;;;;;19.08;16.10;;;22.40;87.60;;;;;;5039544;28;20073;-84
2023/05/25 05:03:23;;;;;;;20.83;15.73;;;22.60;86.60;;;;;;5034289;28;20026;-84
2023/05/25 05:05:50;;;;;;;26.88;17.73;;;22.70;86.00;;;;;;5006786;28;20086;-84
2023/05/25 05:08:16;;;;;;;26.05;20.70;;;22.80;85.80;;;;;;5031657;28;20045;-85
2023/05/25 05:10:44;;;;;;;29.02;22.52;;;22.60;85.80;;;;;;5037373;28;20022;-85
2023/05/25 05:13:12;;;;;;;22.35;19.98;;;22.40;86.80;;;;;;5034680;28;20403;-85
2023/05/25 05:15:48;;;;;;;23.85;21.20;;;22.30;87.20;;;;;;5028407;28;20030;-83
2023/05/25 05:18:15;;;;;;;25.15;19.92;;;22.30;87.50;;;;;;5038020;28;20009;-83
2023/05/25 05:20:41;;;;;;;23.58;21.17;;;22.50;86.80;;;;;;5013290;28;20051;-83
2023/05/25 05:23:07;;;;;;;23.90;19.52;;;22.60;86.10;;;;;;4963166;28;20031;-84
2023/05/25 05:25:36;;;;;;;27.20;20.90;;;22.70;86.20;;;;;;4956261;29;20062;-83
2023/05/25 05:28:03;;;;;;;26.90;21.30;;;22.80;85.50;;;;;;4956453;29;20031;-82
2023/05/25 05:30:32;;;;;;;27.60;21.05;;;22.80;85.20;;;;;;4955787;28;20498;-82
2023/05/25 05:33:00;;;;;;;24.80;21.02;;;22.70;85.40;;;;;;4955093;28;20039;-82
2023/05/25 05:35:26;;;;;;;23.33;21.08;;;22.60;85.80;;;;;;4955501;28;20047;-81
2023/05/25 05:37:52;;;;;;;30.10;19.92;;;22.40;86.30;;;;;;4955897;29;20031;-84
2023/05/25 05:40:18;;;;;;;23.70;20.33;;;22.30;86.60;;;;;;4958438;29;20171;-83
2023/05/25 05:42:44;;;;;;;23.60;20.73;;;22.30;86.80;;;;;;4957136;28;20027;-84
2023/05/25 05:45:10;;;;;;;33.07;22.00;;;22.30;86.80;;;;;;4953706;28;20035;-83
2023/05/25 05:47:38;;;;;;;24.63;18.23;;;22.40;87.10;;;;;;4938589;29;20302;-83
2023/05/25 05:50:04;;;;;;;;;;;22.40;86.50;;;;;;4956541;28;20130;-84
2023/05/25 05:52:30;;;;;;;28.52;21.05;;;22.40;86.70;;;;;;5001198;28;20012;-83
2023/05/25 05:54:56;;;;;;;26.45;18.50;;;22.30;86.80;;;;;;4998952;28;20068;-85
2023/05/25 05:57:21;;;;;;;22.20;18.58;;;22.30;86.40;;;;;;5016236;28;20018;-83
2023/05/25 05:59:47;;;;;;;23.42;17.92;;;22.20;86.90;;;;;;5014911;28;20057;-86
2023/05/25 06:02:13;;;;;;;21.08;18.85;;;22.10;86.90;;;;;;5015334;28;20088;-85
2023/05/25 06:04:42;;;;;;;21.55;19.33;;;22.00;86.70;;;;;;5017778;28;20028;-85
2023/05/25 06:07:08;;;;;;;23.17;20.60;;;21.90;87.30;;;;;;5032663;28;20037;-85
2023/05/25 06:09:34;;;;;;;26.85;20.98;;;21.80;87.70;;;;;;4998233;28;20024;-85
2023/05/25 06:12:00;;;;;;;22.95;20.25;;;21.70;88.60;;;;;;5017249;28;20036;-86
2023/05/25 06:14:26;;;;;;;25.60;22.65;;;21.60;88.90;;;;;;5032709;28;20076;-83
2023/05/25 06:16:52;;;;;;;29.50;21.60;;;21.60;89.60;;;;;;5015727;28;20038;-84
2023/05/25 06:19:18;;;;;;;24.63;20.58;;;21.70;89.20;;;;;;5016072;28;20054;-84
2023/05/25 06:21:43;;;;;;;22.33;18.90;;;21.70;89.00;;;;;;5026803;28;20478;-85
2023/05/25 06:24:12;;;;;;;27.95;19.75;;;21.70;88.40;;;;;;5030220;28;20013;-84
2023/05/25 06:26:42;;;;;;;28.90;20.92;;;21.60;88.90;;;;;;5019217;28;20026;-83
2023/05/25 06:29:08;;;;;;;29.65;20.42;;;21.60;89.30;;;;;;5033917;28;20097;-85
2023/05/25 06:31:39;;;;;;;24.27;21.08;;;21.60;89.00;;;;;;5037730;28;20041;-83
2023/05/25 06:34:20;;;;;;;22.13;19.77;;;21.60;89.20;;;;;;5048990;28;20040;-85
2023/05/25 06:37:10;;;;;;;26.48;21.55;;;21.60;89.30;;;;;;5002025;28;20060;-83
2023/05/25 06:40:32;;;;;;;30.15;22.02;;;21.60;89.60;;;;;;5049147;28;20014;-84
2023/05/25 06:42:58;;;;;;;28.80;23.80;;;21.60;89.70;;;;;;5012492;28;20042;-85
2023/05/25 06:45:24;;;;;;;27.30;23.63;;;21.50;90.00;;;;;;5020922;28;20011;-84
2023/05/25 06:47:50;;;;;;;29.35;21.98;;;21.50;90.10;;;;;;5022486;28;20038;-85
2023/05/25 06:50:16;;;;;;;27.58;20.27;;;21.40;90.20;;;;;;5018124;28;20117;-84
2023/05/25 06:52:42;;;;;;;24.00;18.52;;;21.40;90.10;;;;;;5024718;28;20096;-83
2023/05/25 06:55:08;;;;;;;21.88;18.58;;;21.30;90.10;;;;;;5033032;28;20116;-85
2023/05/25 06:57:36;;;;;;;28.30;20.00;;;21.20;90.20;;;;;;5015878;28;20026;-86
2023/05/25 07:00:02;;;;;;;;;;;21.20;90.40;;;;;;5041292;28;20126;-84
2023/05/25 07:02:28;;;;;;;26.13;21.65;;;21.10;90.40;;;;;;5032399;28;19932;-85
2023/05/25 07:04:54;;;;;;;23.52;18.48;;;20.90;90.80;;;;;;5023196;28;20471;-86
2023/05/25 07:07:21;;;;;;;27.38;21.65;;;20.80;90.60;;;;;;5019837;28;20026;-86
2023/05/25 07:09:47;;;;;;;24.52;20.98;;;20.70;91.30;;;;;;5018775;28;20040;-87
2023/05/25 07:12:13;;;;;;;29.27;21.73;;;20.60;91.90;;;;;;5019793;28;20131;-84
2023/05/25 07:14:39;;;;;;;27.00;23.27;;;20.40;92.50;;;;;;5018224;28;20010;-85
2023/05/25 07:17:05;;;;;;;26.42;21.02;;;20.40;93.00;;;;;;5021558;28;20479;-85
2023/05/25 07:19:31;;;;;;;26.03;21.50;;;20.40;93.70;;;;;;5023351;28;20046;-85
2023/05/25 07:21:57;;;;;;;34.65;23.27;;;20.50;93.60;;;;;;5017228;28;20279;-83
2023/05/25 07:24:23;;;;;;;26.63;23.73;;;20.60;93.70;;;;;;4999498;28;20026;-86
2023/05/25 07:26:49;;;;;;;33.97;24.55;;;20.80;93.90;;;;;;5015374;28;20368;-85
2023/05/25 07:29:15;;;;;;;28.92;22.77;;;20.90;93.10;;;;;;5016740;28;20022;-87
2023/05/25 07:31:41;;;;;;;28.13;23.85;;;20.90;93.00;;;;;;5017276;28;20084;-85
2023/05/25 07:34:07;;;;;;;26.70;23.13;;;21.00;93.50;;;;;;5017137;28;20034;-86
2023/05/25 07:36:33;;;;;;;25.98;23.15;;;21.10;92.70;;;;;;5016799;28;20369;-86
2023/05/25 07:38:58;;;;;;;32.63;25.25;;;21.20;92.50;;;;;;5017728;28;20018;-87
2023/05/25 07:41:25;;;;;;;29.27;22.75;;;21.30;92.30;;;;;;5021167;28;20120;-84
2023/05/25 07:43:51;;;;;;;32.70;24.33;;;21.30;92.00;;;;;;5033505;28;20024;-84
2023/05/25 07:46:19;;;;;;;27.48;21.98;;;21.40;91.80;;;;;;5019865;28;20076;-85
2023/05/25 07:48:45;;;;;;;24.95;21.38;;;21.50;91.50;;;;;;5017113;28;20405;-85
2023/05/25 07:51:11;;;;;;;34.97;24.67;;;21.40;91.50;;;;;;5018291;28;20028;-84
2023/05/25 07:53:37;;;;;;;27.98;24.30;;;21.40;91.70;;;;;;5020759;28;20065;-87
2023/05/25 07:56:04;;;;;;;35.67;24.73;;;21.40;91.80;;;;;;4999755;28;20046;-85
2023/05/25 07:58:30;;;;;;;39.28;26.15;;;21.50;91.70;;;;;;5015613;28;20084;-84
2023/05/25 08:00:56;;;;;;;37.35;26.45;;;21.60;91.60;;;;;;5018683;28;20034;-86
2023/05/25 08:03:22;;;;;;;32.17;26.70;;;21.80;91.30;;;;;;5027167;28;20046;-84
2023/05/25 08:05:48;;;;;;;31.27;27.75;;;21.70;91.30;;;;;;5033628;28;20041;-86
2023/05/25 08:08:14;;;;;;;31.42;28.15;;;21.70;91.10;;;;;;5027793;28;20021;-87
2023/05/25 08:10:41;;;;;;;33.50;29.00;;;21.60;91.10;;;;;;5019860;28;20434;-85
2023/05/25 08:13:07;;;;;;;;;;;21.40;91.20;;;;;;5029201;28;20022;-86
2023/05/25 08:15:33;;;;;;;33.80;29.98;;;21.30;91.20;;;;;;5032387;28;19921;-85
2023/05/25 08:17:59;;;;;;;33.80;28.30;;;21.20;91.50;;;;;;5039486;28;20045;-85
2023/05/25 08:20:25;;;;;;;41.78;31.35;;;21.10;91.50;;;;;;5042117;28;20479;-84
2023/05/25 08:22:52;;;;;;;34.65;30.30;;;21.10;91.80;;;;;;5017071;28;20021;-86
2023/05/25 08:25:18;;;;;;;32.80;29.30;;;21.10;92.00;;;;;;5015970;28;20430;-86
2023/05/25 08:27:44;;;;;;;35.22;31.27;;;21.00;92.20;;;;;;5015832;28;20113;-86
2023/05/25 08:30:10;;;;;;;39.25;32.25;;;21.10;92.20;;;;;;5015565;28;20022;-85
2023/05/25 08:32:36;;;;;;;34.67;31.13;;;21.10;92.10;;;;;;5016002;28;20018;-85
2023/05/25 08:35:03;;;;;;;39.92;31.52;;;21.20;92.10;;;;;;5015973;28;20040;-86
2023/05/25 08:37:31;;;;;;;35.67;31.77;;;21.40;92.20;;;;;;5015632;28;20022;-86
2023/05/25 08:39:59;;;;;;;35.00;31.27;;;21.40;91.80;;;;;;5015855;28;20045;-85
2023/05/25 08:42:25;;;;;;;39.40;31.40;;;21.40;91.80;;;;;;5015640;28;20025;-84
2023/05/25 08:44:51;;;;;;;36.80;32.40;;;21.50;91.80;;;;;;5015521;28;20029;-86
2023/05/25 08:47:23;;;;;;;39.35;30.65;;;21.50;91.90;;;;;;5006085;28;20506;-84
2023/05/25 08:49:50;;;;;;;41.65;35.08;;;21.50;92.10;;;;;;5018384;28;20025;-85
2023/05/25 08:52:21;;;;;;;38.38;34.13;;;21.50;91.90;;;;;;5018662;28;20042;-86
2023/05/25 08:54:52;;;;;;;40.55;35.15;;;21.50;92.00;;;;;;5018553;28;20036;-84
2023/05/25 08:57:34;;;;;;;53.60;33.58;;;21.40;92.10;;;;;;5016375;28;20061;-86
2023/05/25 09:00:10;;;;;;;37.60;33.50;;;21.40;92.60;;;;;;5027170;28;20028;-85
2023/05/25 09:02:42;;;;;;;41.08;36.63;;;21.30;92.30;;;;;;5031779;28;20053;-85
2023/05/25 09:05:08;;;;;;;37.92;32.38;;;21.30;92.70;;;;;;5017526;28;20490;-83
2023/05/25 09:07:35;;;;;;;41.78;37.15;;;21.20;93.00;;;;;;5020527;28;20502;-86
2023/05/25 09:10:01;;;;;;;45.15;36.70;;;21.00;93.10;;;;;;5026836;28;20052;-87
2023/05/25 09:12:30;;;;;;;42.87;38.33;;;20.90;93.30;;;;;;5015906;28;20083;-86
2023/05/25 09:14:57;;;;;;;45.42;38.53;;;20.70;93.80;;;;;;5023234;28;20314;-86
2023/05/25 09:17:24;;;;;;;47.60;37.78;;;20.60;94.30;;;;;;5023926;28;20029;-85
2023/05/25 09:19:50;;;;;;;41.22;35.72;;;20.20;95.10;;;;;;5029185;28;20423;-84
2023/05/25 09:22:16;;;;;;;40.80;36.17;;;20.10;96.10;;;;;;5015154;28;20029;-85
2023/05/25 09:24:43;;;;;;;43.95;37.10;;;19.90;96.80;;;;;;5016390;28;20021;-85
2023/05/25 09:27:16;;;;;;;47.08;37.60;;;19.70;97.40;;;;;;5008728;28;20033;-86
2023/05/25 09:29:42;;;;;;;43.10;37.63;;;19.50;98.00;;;;;;5017952;28;20029;-86
2023/05/25 09:32:08;;;;;;;45.75;40.83;;;19.30;98.60;;;;;;5025595;28;20101;-86
2023/05/25 09:34:34;;;;;;;54.78;44.72;;;19.00;99.30;;;;;;5022794;28;20072;-85
2023/05/25 09:37:03;;;;;;;54.72;45.88;;;18.80;99.90;;;;;;5014532;28;20423;-84
2023/05/25 09:39:29;;;;;;;71.78;54.83;;;18.60;99.90;;;;;;5020593;28;20085;-83
2023/05/25 09:41:56;;;;;;;64.45;52.03;;;18.50;99.90;;;;;;5021895;28;20026;-85
2023/05/25 09:44:22;;;;;;;63.28;52.63;;;18.50;99.90;;;;;;5021138;28;20026;-86
2023/05/25 09:46:48;;;;;;;63.30;52.65;;;18.40;99.90;;;;;;5008146;28;20045;-86
2023/05/25 09:49:15;;;;;;;65.03;53.00;;;18.30;99.90;;;;;;5020650;28;20431;-87
2023/05/25 09:51:41;;;;;;;73.10;57.90;;;18.20;99.90;;;;;;5017306;28;20059;-88
2023/05/25 09:54:09;;;;;;;69.43;54.63;;;18.10;99.90;;;;;;5023936;28;20049;-87
2023/05/25 09:56:35;;;;;;;45.80;37.63;;;18.00;99.90;;;;;;5019263;28;20037;-87
2023/05/25 09:59:02;;;;;;;40.33;36.15;;;18.00;99.90;;;;;;5014656;28;20077;-87
2023/05/25 10:01:28;;;;;;;64.47;47.17;;;17.90;99.90;;;;;;5023625;28;20064;-86
2023/05/25 10:04:00;;;;;;;46.97;41.40;;;17.80;99.90;;;;;;5021904;28;20029;-85
2023/05/25 10:06:27;;;;;;;58.40;44.95;;;17.80;99.90;;;;;;5005646;28;20100;-86
2023/05/25 10:08:55;;;;;;;47.57;41.97;;;17.70;99.90;;;;;;5014365;28;20037;-86
2023/05/25 10:11:21;;;;;;;43.13;38.35;;;17.70;99.90;;;;;;5014300;28;20283;-87
2023/05/25 10:13:49;;;;;;;49.13;41.58;;;17.60;99.90;;;;;;5012773;28;20025;-87
2023/05/25 10:16:17;;;;;;;49.00;41.22;;;17.60;99.90;;;;;;5027942;28;20076;-86
2023/05/25 10:19:06;;;;;;;41.95;37.35;;;17.60;99.90;;;;;;4997145;28;20391;-88
2023/05/25 10:21:35;;;;;;;42.90;38.28;;;17.60;99.90;;;;;;5016002;28;20495;-88
2023/05/25 10:24:12;;;;;;;45.70;40.50;;;17.60;99.90;;;;;;5022045;28;20117;-87
2023/05/25 10:26:41;;;;;;;49.00;41.58;;;17.80;99.90;;;;;;5006642;28;20503;-88
2023/05/25 10:29:09;;;;;;;53.20;45.40;;;17.90;99.90;;;;;;5013625;28;20041;-87
2023/05/25 10:31:36;;;;;;;58.08;46.67;;;18.00;99.90;;;;;;5013559;28;20017;-86
2023/05/25 10:34:02;;;;;;;;;;;18.10;99.90;;;;;;5012528;28;20033;-86
2023/05/25 10:36:30;;;;;;;60.38;46.47;;;18.10;99.90;;;;;;4996389;28;19939;-86
2023/05/25 10:38:57;;;;;;;54.42;48.00;;;18.10;99.90;;;;;;5016465;28;20415;-87
2023/05/25 10:41:23;;;;;;;56.25;49.50;;;18.40;99.90;;;;;;5017318;28;20096;-88
2023/05/25 10:43:49;;;;;;;57.92;50.00;;;18.50;99.90;;;;;;5000078;28;20059;-86
2023/05/25 10:46:16;;;;;;;58.22;52.08;;;18.80;99.90;;;;;;5020329;28;20474;-87
2023/05/25 10:48:47;;;;;;;60.28;53.78;;;18.90;99.90;;;;;;5027194;28;20044;-87
2023/05/25 10:51:13;;;;;;;56.58;49.88;;;19.10;99.90;;;;;;5016395;28;20042;-86
2023/05/25 10:54:00;;;;;;;62.05;54.88;;;19.30;99.90;;;;;;5036449;28;20048;-88
2023/05/25 10:56:25;;;;;;;62.25;50.90;;;19.40;99.90;;;;;;5028008;28;20069;-86
2023/05/25 10:58:52;;;;;;;51.75;46.05;;;19.40;99.90;;;;;;5032572;28;20129;-86
2023/05/25 11:01:18;;;;;;;55.57;49.63;;;19.60;99.90;;;;;;5018573;28;20049;-87
2023/05/25 11:03:46;;;;;;;63.00;50.72;;;19.60;99.90;;;;;;5021895;28;20148;-87
2023/05/25 11:06:17;;;;;;;61.38;51.75;;;19.60;99.90;;;;;;4993415;28;20048;-85
2023/05/25 11:09:03;;;;;;;60.05;53.05;;;19.50;99.90;;;;;;5010380;28;20120;-88
2023/05/25 11:11:47;;;;;;;61.47;52.05;;;19.40;99.90;;;;;;5017733;28;20083;-85
2023/05/25 11:14:30;;;;;;;50.40;45.40;;;19.40;99.90;;;;;;5015614;28;20128;-86
2023/05/25 11:17:14;;;;;;;58.60;51.08;;;19.40;99.90;;;;;;5017786;28;20492;-86
2023/05/25 11:19:42;;;;;;;46.60;41.83;;;19.50;99.90;;;;;;5001228;28;20080;-87
2023/05/25 11:22:14;;;;;;;;;;;19.60;99.90;;;;;;5044678;28;20032;-87
2023/05/25 11:24:43;;;;;;;48.83;43.83;;;20.00;99.90;;;;;;5029819;28;19948;-88
2023/05/25 11:27:10;;;;;;;44.60;40.10;;;20.20;99.90;;;;;;5018093;28;20022;-85
2023/05/25 11:29:36;;;;;;;45.50;40.97;;;20.40;99.90;;;;;;5023114;28;20025;-86
2023/05/25 11:32:03;;;;;;;52.57;43.83;;;20.50;99.90;;;;;;5037907;28;20029;-88
2023/05/25 11:34:31;;;;;;;46.97;42.00;;;20.50;99.90;;;;;;5038599;28;20283;-85
2023/05/25 11:37:00;;;;;;;48.88;43.75;;;20.40;99.90;;;;;;5030324;28;20061;-87
2023/05/25 11:39:27;;;;;;;61.42;44.45;;;20.40;99.90;;;;;;5020213;28;20387;-87
2023/05/25 11:42:00;;;;;;;46.00;40.67;;;20.60;99.90;;;;;;5030442;28;20037;-87
2023/05/25 11:44:32;;;;;;;46.97;42.22;;;20.90;99.90;;;;;;5029654;28;20045;-85
2023/05/25 11:47:07;;;;;;;47.58;40.42;;;20.90;99.90;;;;;;5017237;28;20148;-88
2023/05/25 11:49:34;;;;;;;47.53;41.55;;;20.80;99.90;;;;;;5018659;28;20030;-86
2023/05/25 11:52:05;;;;;;;44.97;40.38;;;20.80;99.90;;;;;;5020747;28;20022;-85
2023/05/25 11:54:32;;;;;;;47.03;41.50;;;20.70;99.90;;;;;;5018692;28;20100;-85
2023/05/25 11:56:58;;;;;;;45.85;41.13;;;20.60;99.90;;;;;;5000785;28;20037;-87
2023/05/25 11:59:28;;;;;;;46.95;42.08;;;20.40;99.90;;;;;;5017355;28;20482;-88
2023/05/25 12:02:04;;;;;;;47.30;42.40;;;20.20;99.90;;;;;;4997113;28;20392;-85
2023/05/25 12:04:33;;;;;;;48.75;43.67;;;20.30;99.90;;;;;;5009218;28;20018;-86
2023/05/25 12:07:06;;;;;;;50.10;44.88;;;20.40;99.90;;;;;;5023281;28;20022;-87
2023/05/25 12:09:33;;;;;;;48.22;42.97;;;20.60;99.90;;;;;;5016272;28;20032;-87
2023/05/25 12:12:02;;;;;;;45.45;40.67;;;20.80;99.90;;;;;;5017296;28;20040;-84
2023/05/25 12:14:29;;;;;;;51.67;43.80;;;20.80;99.90;;;;;;5017930;28;20145;-87
2023/05/25 12:16:55;;;;;;;50.67;45.40;;;20.80;99.90;;;;;;5019950;28;20042;-87
2023/05/25 12:19:21;;;;;;;53.53;43.42;;;20.70;99.90;;;;;;5016147;28;20476;-88
2023/05/25 12:21:50;;;;;;;45.90;41.13;;;20.60;99.90;;;;;;5013944;28;20030;-85
2023/05/25 12:24:17;;;;;;;43.97;38.88;;;20.50;99.90;;;;;;5015227;28;20056;-85
2023/05/25 12:26:56;;;;;;;45.15;40.25;;;20.30;99.90;;;;;;5015213;28;20026;-86
2023/05/25 12:29:22;;;;;;;43.78;39.35;;;20.30;99.90;;;;;;5016807;28;20027;-85
2023/05/25 12:31:48;;;;;;;43.88;38.28;;;20.40;99.90;;;;;;5017574;28;20030;-87